sensor_id;sensor_type;location;lat;lon;timestamp;pressure;altitude;pressure_sealevel;temperature;humidity
31681;BME280;18281;51.364;9.566;2023-04-07T00:00:59;100029.31;;;3.91;98.16
31681;BME280;18281;51.364;9.566;2023-04-07T00:03:24;100036.34;;;3.87;98.39
31681;BME280;18281;51.364;9.566;2023-04-07T00:05:50;100032.75;;;3.92;98.61
31681;BME280;18281;51.364;9.566;2023-04-07T00:08:15;100038.03;;;3.88;99.55
31681;BME280;18281;51.364;9.566;2023-04-07T00:10:41;100035.00;;;3.72;100.00
31681;BME280;18281;51.364;9.566;2023-04-07T00:13:07;100031.03;;;3.91;100.00
31681;BME280;18281;51.364;9.566;2023-04-07T00:15:32;100035.06;;;4.02;100.00
31681;BME280;18281;51.364;9.566;2023-04-07T00:17:57;100034.50;;;3.91;100.00
31681;BME280;18281;51.364;9.566;2023-04-07T00:20:23;100029.13;;;3.99;100.00
31681;BME280;18281;51.364;9.566;2023-04-07T00:22:48;100036.22;;;3.92;100.00
31681;BME280;18281;51.364;9.566;2023-04-07T00:25:14;100032.66;;;3.96;100.00
31681;BME280;18281;51.364;9.566;2023-04-07T00:27:39;100023.31;;;3.89;100.00
31681;BME280;18281;51.364;9.566;2023-04-07T00:30:05;100028.63;;;3.84;100.00
31681;BME280;18281;51.364;9.566;2023-04-07T00:32:31;100028.75;;;3.80;100.00
31681;BME280;18281;51.364;9.566;2023-04-07T00:34:56;100023.63;;;3.77;100.00
31681;BME280;18281;51.364;9.566;2023-04-07T00:37:22;100019.38;;;3.74;100.00
31681;BME280;18281;51.364;9.566;2023-04-07T00:39:49;100023.50;;;3.83;100.00
31681;BME280;18281;51.364;9.566;2023-04-07T00:42:16;100012.50;;;4.04;100.00
31681;BME280;18281;51.364;9.566;2023-04-07T00:44:41;100015.81;;;4.10;100.00
31681;BME280;18281;51.364;9.566;2023-04-07T00:47:07;100012.13;;;3.87;100.00
31681;BME280;18281;51.364;9.566;2023-04-07T00:49:32;100012.56;;;4.01;100.00
31681;BME280;18281;51.364;9.566;2023-04-07T00:51:58;100001.44;;;3.98;100.00
31681;BME280;18281;51.364;9.566;2023-04-07T00:54:23;100006.81;;;3.90;100.00
31681;BME280;18281;51.364;9.566;2023-04-07T00:56:50;100005.91;;;3.93;100.00
31681;BME280;18281;51.364;9.566;2023-04-07T00:59:16;100010.66;;;3.77;100.00
31681;BME280;18281;51.364;9.566;2023-04-07T01:02:02;100006.97;;;3.85;100.00
31681;BME280;18281;51.364;9.566;2023-04-07T01:04:35;99988.50;;;3.95;100.00
31681;BME280;18281;51.364;9.566;2023-04-07T01:07:39;99988.75;;;3.87;100.00
31681;BME280;18281;51.364;9.566;2023-04-07T01:10:11;99982.16;;;4.05;100.00
31681;BME280;18281;51.364;9.566;2023-04-07T01:12:46;99978.13;;;4.25;100.00
31681;BME280;18281;51.364;9.566;2023-04-07T01:15:20;99983.78;;;4.09;100.00
31681;BME280;18281;51.364;9.566;2023-04-07T01:17:52;99972.94;;;4.25;100.00
31681;BME280;18281;51.364;9.566;2023-04-07T01:20:21;99984.03;;;4.00;100.00
31681;BME280;18281;51.364;9.566;2023-04-07T01:22:54;99986.25;;;3.82;100.00
31681;BME280;18281;51.364;9.566;2023-04-07T01:25:32;99986.50;;;4.04;100.00
31681;BME280;18281;51.364;9.566;2023-04-07T01:28:08;99989.13;;;4.04;100.00
31681;BME280;18281;51.364;9.566;2023-04-07T01:30:38;99977.56;;;3.83;100.00
31681;BME280;18281;51.364;9.566;2023-04-07T01:33:04;99980.03;;;3.89;100.00
31681;BME280;18281;51.364;9.566;2023-04-07T01:35:33;99978.41;;;3.85;100.00
31681;BME280;18281;51.364;9.566;2023-04-07T01:37:59;99980.34;;;3.77;100.00
31681;BME280;18281;51.364;9.566;2023-04-07T01:40:28;99979.03;;;3.94;100.00
31681;BME280;18281;51.364;9.566;2023-04-07T01:42:55;99980.09;;;3.86;100.00
31681;BME280;18281;51.364;9.566;2023-04-07T01:45:22;99972.28;;;3.86;100.00
31681;BME280;18281;51.364;9.566;2023-04-07T01:47:49;99975.72;;;3.88;100.00
31681;BME280;18281;51.364;9.566;2023-04-07T01:50:15;99973.22;;;3.84;100.00
31681;BME280;18281;51.364;9.566;2023-04-07T01:52:41;99976.06;;;4.06;100.00
31681;BME280;18281;51.364;9.566;2023-04-07T01:55:07;99975.50;;;3.96;100.00
31681;BME280;18281;51.364;9.566;2023-04-07T01:57:33;99972.22;;;3.89;100.00
31681;BME280;18281;51.364;9.566;2023-04-07T01:59:59;99973.16;;;3.87;100.00
31681;BME280;18281;51.364;9.566;2023-04-07T02:02:25;99974.03;;;3.86;100.00
31681;BME280;18281;51.364;9.566;2023-04-07T02:05:04;99973.31;;;4.12;100.00
31681;BME280;18281;51.364;9.566;2023-04-07T02:07:51;99971.66;;;4.10;100.00
31681;BME280;18281;51.364;9.566;2023-04-07T02:10:21;99975.72;;;3.88;100.00
31681;BME280;18281;51.364;9.566;2023-04-07T02:12:48;99970.06;;;4.04;100.00
31681;BME280;18281;51.364;9.566;2023-04-07T02:15:14;99968.81;;;4.17;100.00
31681;BME280;18281;51.364;9.566;2023-04-07T02:17:43;99968.81;;;4.17;100.00
31681;BME280;18281;51.364;9.566;2023-04-07T02:20:10;99967.69;;;4.26;100.00
31681;BME280;18281;51.364;9.566;2023-04-07T02:22:40;99966.03;;;4.23;100.00
31681;BME280;18281;51.364;9.566;2023-04-07T02:25:20;99963.59;;;4.17;100.00
31681;BME280;18281;51.364;9.566;2023-04-07T02:27:46;99960.91;;;3.92;100.00
31681;BME280;18281;51.364;9.566;2023-04-07T02:30:11;99958.19;;;3.95;100.00
31681;BME280;18281;51.364;9.566;2023-04-07T02:32:37;99962.19;;;4.07;100.00
31681;BME280;18281;51.364;9.566;2023-04-07T02:35:02;99959.41;;;4.13;100.00
31681;BME280;18281;51.364;9.566;2023-04-07T02:37:28;99948.44;;;4.03;100.00
31681;BME280;18281;51.364;9.566;2023-04-07T02:39:53;99957.06;;;4.05;100.00
31681;BME280;18281;51.364;9.566;2023-04-07T02:42:19;99958.72;;;4.06;100.00
31681;BME280;18281;51.364;9.566;2023-04-07T02:44:45;99956.84;;;4.12;100.00
31681;BME280;18281;51.364;9.566;2023-04-07T02:47:10;99952.47;;;4.14;100.00
31681;BME280;18281;51.364;9.566;2023-04-07T02:49:36;99957.41;;;4.21;100.00
31681;BME280;18281;51.364;9.566;2023-04-07T02:52:01;99952.53;;;4.11;100.00
31681;BME280;18281;51.364;9.566;2023-04-07T02:54:26;99957.16;;;4.01;100.00
31681;BME280;18281;51.364;9.566;2023-04-07T02:56:52;99960.47;;;4.06;100.00
31681;BME280;18281;51.364;9.566;2023-04-07T02:59:17;99956.19;;;4.05;100.00
31681;BME280;18281;51.364;9.566;2023-04-07T03:01:43;99951.84;;;4.05;100.00
31681;BME280;18281;51.364;9.566;2023-04-07T03:04:08;99943.72;;;3.86;100.00
31681;BME280;18281;51.364;9.566;2023-04-07T03:06:33;99942.25;;;4.08;100.00
31681;BME280;18281;51.364;9.566;2023-04-07T03:08:59;99937.88;;;4.10;100.00
31681;BME280;18281;51.364;9.566;2023-04-07T03:11:25;99939.69;;;4.06;100.00
31681;BME280;18281;51.364;9.566;2023-04-07T03:13:51;99931.69;;;4.14;100.00
31681;BME280;18281;51.364;9.566;2023-04-07T03:16:16;99944.72;;;4.12;100.00
31681;BME280;18281;51.364;9.566;2023-04-07T03:18:43;99943.97;;;3.77;100.00
31681;BME280;18281;51.364;9.566;2023-04-07T03:21:09;99934.09;;;3.90;100.00
31681;BME280;18281;51.364;9.566;2023-04-07T03:23:35;99932.56;;;4.13;100.00
31681;BME280;18281;51.364;9.566;2023-04-07T03:26:00;99917.81;;;4.13;100.00
31681;BME280;18281;51.364;9.566;2023-04-07T03:28:25;99926.97;;;3.97;100.00
31681;BME280;18281;51.364;9.566;2023-04-07T03:30:51;99924.69;;;3.86;100.00
31681;BME280;18281;51.364;9.566;2023-04-07T03:33:16;99926.25;;;3.92;100.00
31681;BME280;18281;51.364;9.566;2023-04-07T03:35:41;99929.84;;;3.87;100.00
31681;BME280;18281;51.364;9.566;2023-04-07T03:38:07;99924.59;;;3.89;100.00
31681;BME280;18281;51.364;9.566;2023-04-07T03:40:32;99923.75;;;3.88;100.00
31681;BME280;18281;51.364;9.566;2023-04-07T03:42:59;99918.53;;;3.90;100.00
31681;BME280;18281;51.364;9.566;2023-04-07T03:45:25;99927.16;;;3.91;100.00
31681;BME280;18281;51.364;9.566;2023-04-07T03:47:50;99934.41;;;3.79;100.00
31681;BME280;18281;51.364;9.566;2023-04-07T03:50:16;99926.00;;;3.71;100.00
31681;BME280;18281;51.364;9.566;2023-04-07T03:52:42;99932.41;;;3.89;100.00
31681;BME280;18281;51.364;9.566;2023-04-07T03:55:08;99928.50;;;3.74;100.00
31681;BME280;18281;51.364;9.566;2023-04-07T03:57:33;99931.16;;;3.72;100.00
31681;BME280;18281;51.364;9.566;2023-04-07T03:59:59;99936.88;;;3.84;100.00
31681;BME280;18281;51.364;9.566;2023-04-07T04:02:24;99929.13;;;3.82;100.00
31681;BME280;18281;51.364;9.566;2023-04-07T04:04:50;99937.22;;;3.71;100.00
31681;BME280;18281;51.364;9.566;2023-04-07T04:07:15;99938.22;;;3.67;100.00
31681;BME280;18281;51.364;9.566;2023-04-07T04:09:41;99938.41;;;3.60;100.00
31681;BME280;18281;51.364;9.566;2023-04-07T04:12:07;99935.19;;;3.51;100.00
31681;BME280;18281;51.364;9.566;2023-04-07T04:14:33;99946.53;;;3.47;100.00
31681;BME280;18281;51.364;9.566;2023-04-07T04:16:58;99941.00;;;3.60;100.00
31681;BME280;18281;51.364;9.566;2023-04-07T04:19:24;99942.75;;;3.59;100.00
31681;BME280;18281;51.364;9.566;2023-04-07T04:21:51;99951.06;;;3.72;100.00
31681;BME280;18281;51.364;9.566;2023-04-07T04:24:18;99948.78;;;3.60;100.00
31681;BME280;18281;51.364;9.566;2023-04-07T04:26:43;99952.56;;;3.48;100.00
31681;BME280;18281;51.364;9.566;2023-04-07T04:29:09;99952.63;;;3.45;100.00
31681;BME280;18281;51.364;9.566;2023-04-07T04:31:34;99950.84;;;3.48;100.00
31681;BME280;18281;51.364;9.566;2023-04-07T04:34:00;99943.84;;;3.50;100.00
31681;BME280;18281;51.364;9.566;2023-04-07T04:36:26;99947.38;;;3.49;100.00
31681;BME280;18281;51.364;9.566;2023-04-07T04:38:51;99942.34;;;3.42;100.00
31681;BME280;18281;51.364;9.566;2023-04-07T04:41:17;99951.53;;;3.55;100.00
31681;BME280;18281;51.364;9.566;2023-04-07T04:43:42;99949.19;;;3.46;100.00
31681;BME280;18281;51.364;9.566;2023-04-07T04:46:08;99936.66;;;3.62;100.00
31681;BME280;18281;51.364;9.566;2023-04-07T04:48:33;99945.41;;;3.58;100.00
31681;BME280;18281;51.364;9.566;2023-04-07T04:50:59;99947.72;;;3.68;100.00
31681;BME280;18281;51.364;9.566;2023-04-07T04:53:24;99947.03;;;3.62;100.00
31681;BME280;18281;51.364;9.566;2023-04-07T04:55:49;99945.22;;;3.64;100.00
31681;BME280;18281;51.364;9.566;2023-04-07T04:58:18;99949.63;;;3.62;100.00
31681;BME280;18281;51.364;9.566;2023-04-07T05:00:43;99944.38;;;3.63;100.00
31681;BME280;18281;51.364;9.566;2023-04-07T05:03:09;99946.84;;;3.68;100.00
31681;BME280;18281;51.364;9.566;2023-04-07T05:05:34;99955.31;;;3.75;100.00
31681;BME280;18281;51.364;9.566;2023-04-07T05:08:00;99950.16;;;3.73;100.00
31681;BME280;18281;51.364;9.566;2023-04-07T05:10:25;99953.75;;;3.69;100.00
31681;BME280;18281;51.364;9.566;2023-04-07T05:12:52;99957.22;;;3.68;100.00
31681;BME280;18281;51.364;9.566;2023-04-07T05:15:18;99951.09;;;3.70;100.00
31681;BME280;18281;51.364;9.566;2023-04-07T05:17:43;99948.75;;;3.61;100.00
31681;BME280;18281;51.364;9.566;2023-04-07T05:20:14;99950.16;;;3.73;100.00
31681;BME280;18281;51.364;9.566;2023-04-07T05:22:40;99957.22;;;3.68;100.00
31681;BME280;18281;51.364;9.566;2023-04-07T05:25:06;99953.69;;;3.72;100.00
31681;BME280;18281;51.364;9.566;2023-04-07T05:27:31;99958.00;;;3.71;100.00
31681;BME280;18281;51.364;9.566;2023-04-07T05:29:57;99959.50;;;3.80;100.00
31681;BME280;18281;51.364;9.566;2023-04-07T05:32:23;99956.28;;;3.72;100.00
31681;BME280;18281;51.364;9.566;2023-04-07T05:34:48;99962.25;;;3.74;100.00
31681;BME280;18281;51.364;9.566;2023-04-07T05:37:14;99958.72;;;3.77;100.00
31681;BME280;18281;51.364;9.566;2023-04-07T05:39:39;99956.06;;;4.38;100.00
31681;BME280;18281;51.364;9.566;2023-04-07T05:42:05;99963.50;;;5.04;100.00
31681;BME280;18281;51.364;9.566;2023-04-07T05:44:30;99959.75;;;5.39;100.00
31681;BME280;18281;51.364;9.566;2023-04-07T05:46:56;99955.19;;;5.70;100.00
31681;BME280;18281;51.364;9.566;2023-04-07T05:49:21;99953.56;;;5.91;100.00
31681;BME280;18281;51.364;9.566;2023-04-07T05:51:46;99959.31;;;5.99;100.00
31681;BME280;18281;51.364;9.566;2023-04-07T05:54:12;99958.16;;;6.08;100.00
31681;BME280;18281;51.364;9.566;2023-04-07T05:56:37;99950.75;;;6.19;100.00
31681;BME280;18281;51.364;9.566;2023-04-07T05:59:03;99959.47;;;6.18;100.00
31681;BME280;18281;51.364;9.566;2023-04-07T06:01:28;99953.91;;;6.05;100.00
31681;BME280;18281;51.364;9.566;2023-04-07T06:03:54;99959.03;;;6.31;100.00
31681;BME280;18281;51.364;9.566;2023-04-07T06:06:23;99965.22;;;6.50;100.00
31681;BME280;18281;51.364;9.566;2023-04-07T06:08:50;99953.56;;;6.59;100.00
31681;BME280;18281;51.364;9.566;2023-04-07T06:11:15;99964.63;;;6.66;100.00
31681;BME280;18281;51.364;9.566;2023-04-07T06:13:41;99960.53;;;6.81;100.00
31681;BME280;18281;51.364;9.566;2023-04-07T06:16:06;99969.03;;;6.86;98.38
31681;BME280;18281;51.364;9.566;2023-04-07T06:18:32;99969.09;;;6.40;93.88
31681;BME280;18281;51.364;9.566;2023-04-07T06:20:57;99963.19;;;6.13;93.72
31681;BME280;18281;51.364;9.566;2023-04-07T06:23:23;99965.81;;;5.89;93.99
31681;BME280;18281;51.364;9.566;2023-04-07T06:25:48;99966.28;;;5.75;93.82
31681;BME280;18281;51.364;9.566;2023-04-07T06:28:18;99964.38;;;5.80;93.65
31681;BME280;18281;51.364;9.566;2023-04-07T06:30:44;99968.44;;;5.87;93.35
31681;BME280;18281;51.364;9.566;2023-04-07T06:33:10;99961.31;;;5.93;93.09
31681;BME280;18281;51.364;9.566;2023-04-07T06:35:35;99971.47;;;6.00;92.09
31681;BME280;18281;51.364;9.566;2023-04-07T06:38:01;99967.16;;;5.99;92.17
31681;BME280;18281;51.364;9.566;2023-04-07T06:40:26;99968.28;;;5.92;92.07
31681;BME280;18281;51.364;9.566;2023-04-07T06:42:52;99971.84;;;5.89;93.47
31681;BME280;18281;51.364;9.566;2023-04-07T06:45:19;99969.88;;;5.96;92.84
31681;BME280;18281;51.364;9.566;2023-04-07T06:47:44;99970.00;;;5.93;92.33
31681;BME280;18281;51.364;9.566;2023-04-07T06:50:10;99975.72;;;6.03;92.52
31681;BME280;18281;51.364;9.566;2023-04-07T06:52:36;99982.44;;;5.85;92.53
31681;BME280;18281;51.364;9.566;2023-04-07T06:55:01;99982.88;;;5.72;92.57
31681;BME280;18281;51.364;9.566;2023-04-07T06:57:27;99976.72;;;5.75;92.87
31681;BME280;18281;51.364;9.566;2023-04-07T06:59:52;99978.94;;;5.86;92.79
31681;BME280;18281;51.364;9.566;2023-04-07T07:02:18;99981.59;;;5.84;92.39
31681;BME280;18281;51.364;9.566;2023-04-07T07:04:43;99986.03;;;5.82;92.62
31681;BME280;18281;51.364;9.566;2023-04-07T07:07:09;99985.53;;;5.71;92.21
31681;BME280;18281;51.364;9.566;2023-04-07T07:09:34;99985.53;;;5.71;92.16
31681;BME280;18281;51.364;9.566;2023-04-07T07:12:00;99985.34;;;5.77;91.89
31681;BME280;18281;51.364;9.566;2023-04-07T07:14:31;99985.22;;;5.80;91.90
31681;BME280;18281;51.364;9.566;2023-04-07T07:16:57;99987.75;;;5.82;91.30
31681;BME280;18281;51.364;9.566;2023-04-07T07:19:22;99997.50;;;5.77;91.19
31681;BME280;18281;51.364;9.566;2023-04-07T07:21:47;99984.25;;;5.83;90.76
31681;BME280;18281;51.364;9.566;2023-04-07T07:24:13;99992.00;;;5.84;90.67
31681;BME280;18281;51.364;9.566;2023-04-07T07:26:39;99990.88;;;5.92;89.90
31681;BME280;18281;51.364;9.566;2023-04-07T07:29:06;99988.28;;;5.92;89.55
31681;BME280;18281;51.364;9.566;2023-04-07T07:31:31;99991.47;;;6.00;89.40
31681;BME280;18281;51.364;9.566;2023-04-07T07:33:57;99990.66;;;5.98;89.42
31681;BME280;18281;51.364;9.566;2023-04-07T07:36:22;99989.75;;;5.99;89.56
31681;BME280;18281;51.364;9.566;2023-04-07T07:38:50;99991.47;;;6.00;89.87
31681;BME280;18281;51.364;9.566;2023-04-07T07:41:16;99993.47;;;5.92;89.82
31681;BME280;18281;51.364;9.566;2023-04-07T07:43:41;99992.53;;;5.94;89.35
31681;BME280;18281;51.364;9.566;2023-04-07T07:46:07;99996.69;;;6.00;89.44
31681;BME280;18281;51.364;9.566;2023-04-07T07:48:32;99999.22;;;6.01;89.14
31681;BME280;18281;51.364;9.566;2023-04-07T07:50:58;99999.50;;;5.94;89.21
31681;BME280;18281;51.364;9.566;2023-04-07T07:53:23;99999.50;;;5.94;88.97
31681;BME280;18281;51.364;9.566;2023-04-07T07:55:49;100000.41;;;5.93;89.08
31681;BME280;18281;51.364;9.566;2023-04-07T07:58:14;100000.41;;;5.93;88.93
31681;BME280;18281;51.364;9.566;2023-04-07T08:00:40;100005.28;;;6.02;88.85
31681;BME280;18281;51.364;9.566;2023-04-07T08:03:06;100004.94;;;6.11;88.62
31681;BME280;18281;51.364;9.566;2023-04-07T08:05:31;100003.22;;;6.10;88.31
31681;BME280;18281;51.364;9.566;2023-04-07T08:07:57;99997.34;;;6.05;88.66
31681;BME280;18281;51.364;9.566;2023-04-07T08:10:22;100008.97;;;6.20;88.45
31681;BME280;18281;51.364;9.566;2023-04-07T08:12:49;100009.13;;;6.39;88.19
31681;BME280;18281;51.364;9.566;2023-04-07T08:15:14;100012.56;;;6.39;88.26
31681;BME280;18281;51.364;9.566;2023-04-07T08:17:40;100015.91;;;6.43;87.84
31681;BME280;18281;51.364;9.566;2023-04-07T08:20:06;100020.94;;;6.48;87.41
31681;BME280;18281;51.364;9.566;2023-04-07T08:22:32;100017.50;;;6.47;87.11
31681;BME280;18281;51.364;9.566;2023-04-07T08:24:58;100018.03;;;6.55;86.48
31681;BME280;18281;51.364;9.566;2023-04-07T08:27:23;100018.72;;;6.61;85.80
31681;BME280;18281;51.364;9.566;2023-04-07T08:29:58;100011.72;;;6.61;85.34
31681;BME280;18281;51.364;9.566;2023-04-07T08:32:24;100008.00;;;6.68;85.01
31681;BME280;18281;51.364;9.566;2023-04-07T08:34:50;100020.97;;;6.70;85.50
31681;BME280;18281;51.364;9.566;2023-04-07T08:37:15;100018.41;;;6.90;85.30
31681;BME280;18281;51.364;9.566;2023-04-07T08:39:41;100015.41;;;7.01;84.75
31681;BME280;18281;51.364;9.566;2023-04-07T08:42:07;100022.16;;;7.07;84.65
31681;BME280;18281;51.364;9.566;2023-04-07T08:44:35;100027.31;;;7.09;84.68
31681;BME280;18281;51.364;9.566;2023-04-07T08:47:04;100025.66;;;7.06;84.57
31681;BME280;18281;51.364;9.566;2023-04-07T08:49:34;100024.09;;;7.02;84.27
31681;BME280;18281;51.364;9.566;2023-04-07T08:52:05;100023.78;;;7.10;83.40
31681;BME280;18281;51.364;9.566;2023-04-07T08:54:31;100023.44;;;7.17;83.84
31681;BME280;18281;51.364;9.566;2023-04-07T08:56:58;100024.63;;;7.10;83.55
31681;BME280;18281;51.364;9.566;2023-04-07T08:59:25;100023.44;;;7.17;83.89
31681;BME280;18281;51.364;9.566;2023-04-07T09:01:53;100024.13;;;7.22;84.14
31681;BME280;18281;51.364;9.566;2023-04-07T09:04:19;100027.63;;;7.21;83.24
31681;BME280;18281;51.364;9.566;2023-04-07T09:06:47;100027.16;;;7.34;83.23
31681;BME280;18281;51.364;9.566;2023-04-07T09:09:13;100030.53;;;7.36;83.07
31681;BME280;18281;51.364;9.566;2023-04-07T09:11:39;100032.97;;;7.40;83.67
31681;BME280;18281;51.364;9.566;2023-04-07T09:14:05;100036.78;;;7.52;83.62
31681;BME280;18281;51.364;9.566;2023-04-07T09:16:33;100040.53;;;7.47;83.25
31681;BME280;18281;51.364;9.566;2023-04-07T09:19:00;100041.13;;;7.53;83.57
31681;BME280;18281;51.364;9.566;2023-04-07T09:21:26;100029.38;;;7.64;84.12
31681;BME280;18281;51.364;9.566;2023-04-07T09:23:51;100031.19;;;7.62;84.16
31681;BME280;18281;51.364;9.566;2023-04-07T09:28:44;100033.53;;;7.68;83.57
31681;BME280;18281;51.364;9.566;2023-04-07T09:31:11;100032.25;;;7.78;83.42
31681;BME280;18281;51.364;9.566;2023-04-07T09:33:36;100034.84;;;7.78;83.15
31681;BME280;18281;51.364;9.566;2023-04-07T09:36:03;100028.09;;;7.72;83.62
31681;BME280;18281;51.364;9.566;2023-04-07T09:38:37;100026.66;;;7.86;83.83
31681;BME280;18281;51.364;9.566;2023-04-07T09:41:08;100027.03;;;7.97;83.67
31681;BME280;18281;51.364;9.566;2023-04-07T09:43:34;100033.00;;;8.01;83.39
31681;BME280;18281;51.364;9.566;2023-04-07T09:46:11;100024.75;;;8.29;82.38
31681;BME280;18281;51.364;9.566;2023-04-07T09:48:38;100016.59;;;8.35;82.73
31681;BME280;18281;51.364;9.566;2023-04-07T09:51:05;100020.59;;;8.44;82.76
31681;BME280;18281;51.364;9.566;2023-04-07T09:56:08;100022.13;;;8.67;80.58
31681;BME280;18281;51.364;9.566;2023-04-07T09:58:37;100018.88;;;8.62;80.02
31681;BME280;18281;51.364;9.566;2023-04-07T10:01:05;100020.66;;;8.62;80.28
31681;BME280;18281;51.364;9.566;2023-04-07T10:03:32;100016.56;;;8.56;80.08
31681;BME280;18281;51.364;9.566;2023-04-07T10:05:59;100016.69;;;8.72;79.85
31681;BME280;18281;51.364;9.566;2023-04-07T10:08:26;100015.41;;;8.62;80.41
31681;BME280;18281;51.364;9.566;2023-04-07T10:10:54;100009.91;;;8.68;81.06
31681;BME280;18281;51.364;9.566;2023-04-07T10:13:22;100004.97;;;8.79;79.26
31681;BME280;18281;51.364;9.566;2023-04-07T10:15:48;100010.69;;;8.87;78.23
31681;BME280;18281;51.364;9.566;2023-04-07T10:18:15;100010.34;;;9.13;78.14
31681;BME280;18281;51.364;9.566;2023-04-07T10:20:43;100010.88;;;9.19;77.36
31681;BME280;18281;51.364;9.566;2023-04-07T10:23:19;100010.34;;;9.13;76.40
31681;BME280;18281;51.364;9.566;2023-04-07T10:25:46;100013.06;;;8.74;74.68
31681;BME280;18281;51.364;9.566;2023-04-07T10:28:15;100017.66;;;9.06;75.43
31681;BME280;18281;51.364;9.566;2023-04-07T10:30:42;100027.38;;;9.04;75.63
31681;BME280;18281;51.364;9.566;2023-04-07T10:33:09;100017.44;;;8.93;74.84
31681;BME280;18281;51.364;9.566;2023-04-07T10:36:11;100024.38;;;8.75;74.62
31681;BME280;18281;51.364;9.566;2023-04-07T10:38:37;100028.16;;;8.69;74.52
31681;BME280;18281;51.364;9.566;2023-04-07T10:41:35;100029.97;;;8.86;75.54
31681;BME280;18281;51.364;9.566;2023-04-07T10:44:02;100026.47;;;8.86;75.47
31681;BME280;18281;51.364;9.566;2023-04-07T10:49:12;100026.94;;;8.94;76.79
31681;BME280;18281;51.364;9.566;2023-04-07T10:51:38;100025.03;;;8.98;76.42
31681;BME280;18281;51.364;9.566;2023-04-07T10:54:21;100033.22;;;9.09;76.62
31681;BME280;18281;51.364;9.566;2023-04-07T10:57:07;100026.94;;;9.13;76.76
31681;BME280;18281;51.364;9.566;2023-04-07T10:59:34;100027.75;;;9.14;78.12
31681;BME280;18281;51.364;9.566;2023-04-07T11:04:41;100026.59;;;9.19;76.49
31681;BME280;18281;51.364;9.566;2023-04-07T11:07:07;100022.34;;;9.17;77.17
31681;BME280;18281;51.364;9.566;2023-04-07T11:09:33;100018.75;;;9.19;76.61
31681;BME280;18281;51.364;9.566;2023-04-07T11:11:58;100015.84;;;9.25;75.77
31681;BME280;18281;51.364;9.566;2023-04-07T11:14:28;100020.53;;;9.19;75.81
31681;BME280;18281;51.364;9.566;2023-04-07T11:16:55;100021.00;;;9.27;75.28
31681;BME280;18281;51.364;9.566;2023-04-07T11:19:21;100013.38;;;9.40;75.49
31681;BME280;18281;51.364;9.566;2023-04-07T11:21:47;100018.13;;;9.49;75.31
31681;BME280;18281;51.364;9.566;2023-04-07T11:24:34;100004.09;;;9.68;75.80
31681;BME280;18281;51.364;9.566;2023-04-07T11:27:03;100013.44;;;9.73;75.43
31681;BME280;18281;51.364;9.566;2023-04-07T11:29:33;100013.84;;;9.66;73.50
31681;BME280;18281;51.364;9.566;2023-04-07T11:32:00;100007.16;;;9.76;73.12
31681;BME280;18281;51.364;9.566;2023-04-07T11:34:35;100011.81;;;9.71;70.98
31681;BME280;18281;51.364;9.566;2023-04-07T11:37:21;100009.13;;;9.72;72.98
31681;BME280;18281;51.364;9.566;2023-04-07T11:40:06;100008.59;;;9.66;71.28
31681;BME280;18281;51.364;9.566;2023-04-07T11:42:35;100022.75;;;9.62;68.90
31681;BME280;18281;51.364;9.566;2023-04-07T11:45:01;100020.88;;;9.81;71.63
31681;BME280;18281;51.364;9.566;2023-04-07T11:47:37;100020.66;;;9.86;71.13
31681;BME280;18281;51.364;9.566;2023-04-07T11:50:04;100019.94;;;10.16;72.41
31681;BME280;18281;51.364;9.566;2023-04-07T11:52:47;100016.63;;;10.12;71.75
31681;BME280;18281;51.364;9.566;2023-04-07T11:55:20;100010.06;;;10.21;73.47
31681;BME280;18281;51.364;9.566;2023-04-07T11:57:47;100019.88;;;10.33;74.59
31681;BME280;18281;51.364;9.566;2023-04-07T12:00:13;100017.84;;;10.70;73.84
31681;BME280;18281;51.364;9.566;2023-04-07T12:02:41;100019.97;;;10.64;74.74
31681;BME280;18281;51.364;9.566;2023-04-07T12:05:07;100015.66;;;10.63;74.30
31681;BME280;18281;51.364;9.566;2023-04-07T12:07:38;100020.66;;;10.51;73.34
31681;BME280;18281;51.364;9.566;2023-04-07T12:12:45;100010.06;;;10.21;71.33
31681;BME280;18281;51.364;9.566;2023-04-07T12:15:11;100009.22;;;10.20;71.87
31681;BME280;18281;51.364;9.566;2023-04-07T12:17:37;100005.00;;;10.18;70.72
31681;BME280;18281;51.364;9.566;2023-04-07T12:20:02;100007.53;;;10.19;70.91
31681;BME280;18281;51.364;9.566;2023-04-07T12:22:28;100008.88;;;10.27;71.43
31681;BME280;18281;51.364;9.566;2023-04-07T12:24:54;100011.28;;;10.47;76.54
31681;BME280;18281;51.364;9.566;2023-04-07T12:27:19;100007.03;;;10.61;77.20
31681;BME280;18281;51.364;9.566;2023-04-07T12:29:45;100004.63;;;10.72;78.01
31681;BME280;18281;51.364;9.566;2023-04-07T12:32:10;100001.53;;;10.81;78.31
31681;BME280;18281;51.364;9.566;2023-04-07T12:34:36;100007.00;;;10.76;76.46
31681;BME280;18281;51.364;9.566;2023-04-07T12:37:02;100000.06;;;10.91;74.70
31681;BME280;18281;51.364;9.566;2023-04-07T12:39:27;100008.13;;;10.88;74.58
31681;BME280;18281;51.364;9.566;2023-04-07T12:41:52;100013.81;;;10.97;76.74
31681;BME280;18281;51.364;9.566;2023-04-07T12:44:18;100010.81;;;11.03;77.21
31681;BME280;18281;51.364;9.566;2023-04-07T12:46:44;100019.28;;;11.08;77.29
31681;BME280;18281;51.364;9.566;2023-04-07T12:49:09;100019.47;;;11.05;77.37
31681;BME280;18281;51.364;9.566;2023-04-07T12:51:35;100022.50;;;10.97;76.17
31681;BME280;18281;51.364;9.566;2023-04-07T12:54:01;100027.16;;;11.08;77.85
31681;BME280;18281;51.364;9.566;2023-04-07T12:56:27;100025.22;;;11.26;80.89
31681;BME280;18281;51.364;9.566;2023-04-07T12:58:53;100022.34;;;11.31;81.47
31681;BME280;18281;51.364;9.566;2023-04-07T13:01:19;100030.38;;;11.44;80.58
31681;BME280;18281;51.364;9.566;2023-04-07T13:03:45;100028.13;;;11.52;79.77
31681;BME280;18281;51.364;9.566;2023-04-07T13:06:11;100024.53;;;11.53;79.17
31681;BME280;18281;51.364;9.566;2023-04-07T13:08:37;100026.91;;;11.57;78.60
31681;BME280;18281;51.364;9.566;2023-04-07T13:11:03;100025.78;;;11.62;78.67
31681;BME280;18281;51.364;9.566;2023-04-07T13:13:29;100026.56;;;11.64;77.90